Time;durP1;ratioP1;P1;durP2;ratioP2;P2;SDS_P1;SDS_P2;PMS_P1;PMS_P2;Temp;Humidity;BMP_temperature;BMP_pressure;BME280_temperature;BME280_humidity;BME280_pressure;Samples;Min_cycle;Max_cycle;Signal;HPM_P1;HPM_P2
2022/04/25 00:00:40;;;;;;;18.13;12.47;;;;;;;;;;5053268;28;20443;-72
2022/04/25 00:03:06;;;;;;;17.40;12.63;;;;;;;;;;5053291;28;20896;-72
2022/04/25 00:05:32;;;;;;;17.40;12.60;;;;;;;;;;5053153;28;20511;-73
2022/04/25 00:07:58;;;;;;;17.40;12.80;;;;;;;;;;5053045;28;20466;-72
2022/04/25 00:10:24;;;;;;;16.83;12.50;;;;;;;;;;5053162;28;20868;-72
2022/04/25 00:12:50;;;;;;;17.47;12.80;;;;;;;;;;5053134;28;20512;-73
2022/04/25 00:15:16;;;;;;;17.43;12.50;;;;;;;;;;5053241;28;20548;-72
2022/04/25 00:17:42;;;;;;;17.87;12.73;;;;;;;;;;5053054;28;20406;-73
2022/04/25 00:20:09;;;;;;;19.33;13.57;;;;;;;;;;5051792;28;20425;-72
2022/04/25 00:22:35;;;;;;;17.43;13.23;;;;;;;;;;5053115;28;20444;-73
2022/04/25 00:25:02;;;;;;;16.83;12.33;;;;;;;;;;5052836;28;20939;-72
2022/04/25 00:27:29;;;;;;;23.90;15.97;;;;;;;;;;5051782;28;20441;-72
2022/04/25 00:29:56;;;;;;;20.10;15.20;;;;;;;;;;5052843;28;20429;-72
2022/04/25 00:32:23;;;;;;;24.13;15.30;;;;;;;;;;5053021;28;20815;-71
2022/04/25 00:34:49;;;;;;;24.10;16.20;;;;;;;;;;5052948;28;20409;-71
2022/04/25 00:37:15;;;;;;;21.90;15.33;;;;;;;;;;5052946;28;20406;-70
2022/04/25 00:39:41;;;;;;;22.40;15.40;;;;;;;;;;5052849;28;20516;-73
2022/04/25 00:42:07;;;;;;;26.97;15.97;;;;;;;;;;5052829;28;20436;-71
2022/04/25 00:44:33;;;;;;;23.30;17.13;;;;;;;;;;5052751;28;20413;-66
2022/04/25 00:47:00;;;;;;;22.73;17.00;;;;;;;;;;5052885;28;20413;-72
2022/04/25 00:49:26;;;;;;;28.10;17.37;;;;;;;;;;5052781;28;20485;-73
2022/04/25 00:51:52;;;;;;;23.47;17.23;;;;;;;;;;5051609;28;20418;-71
2022/04/25 00:54:22;;;;;;;23.80;17.77;;;;;;;;;;5051523;28;20423;-70
2022/04/25 00:56:49;;;;;;;25.73;16.80;;;;;;;;;;5052729;28;20394;-71
2022/04/25 00:59:16;;;;;;;28.60;19.23;;;;;;;;;;5052591;28;20760;-72
2022/04/25 01:01:42;;;;;;;25.20;18.90;;;;;;;;;;5052740;28;20484;-73
2022/04/25 01:04:09;;;;;;;26.77;19.13;;;;;;;;;;5052730;28;20420;-70
2022/04/25 01:06:35;;;;;;;26.10;19.27;;;;;;;;;;5052397;28;20570;-72
2022/04/25 01:09:01;;;;;;;23.93;17.47;;;;;;;;;;5055498;28;20844;-71
2022/04/25 01:11:27;;;;;;;25.37;17.77;;;;;;;;;;5055141;28;20416;-72
2022/04/25 01:13:53;;;;;;;27.30;18.13;;;;;;;;;;5056343;28;20465;-72
2022/04/25 01:16:20;;;;;;;29.70;19.43;;;;;;;;;;5056413;28;20442;-72
2022/04/25 01:18:46;;;;;;;24.93;17.13;;;;;;;;;;5056250;28;20908;-73
2022/04/25 01:21:13;;;;;;;25.53;18.33;;;;;;;;;;5056264;28;20400;-71
2022/04/25 01:29:09;;;;;;;26.50;18.37;;;;;;;;;;5056351;28;20846;-72
2022/04/25 01:31:35;;;;;;;24.93;18.27;;;;;;;;;;5056165;28;20414;-72
2022/04/25 01:34:01;;;;;;;26.20;18.37;;;;;;;;;;5056032;28;20893;-71
2022/04/25 01:36:27;;;;;;;27.77;19.00;;;;;;;;;;5056003;28;20409;-73
2022/04/25 01:38:54;;;;;;;26.87;18.87;;;;;;;;;;5055875;28;20433;-71
2022/04/25 01:41:20;;;;;;;29.50;19.67;;;;;;;;;;5055949;28;20412;-72
2022/04/25 01:43:47;;;;;;;28.70;19.97;;;;;;;;;;5055783;28;20451;-72
2022/04/25 01:46:13;;;;;;;32.47;20.37;;;;;;;;;;5055621;28;20472;-72
2022/04/25 01:48:41;;;;;;;26.40;19.07;;;;;;;;;;5055720;28;20406;-73
2022/04/25 01:51:07;;;;;;;31.17;20.80;;;;;;;;;;5054503;28;20425;-72
2022/04/25 01:53:33;;;;;;;29.37;20.73;;;;;;;;;;5055696;28;20463;-73
2022/04/25 01:55:59;;;;;;;26.70;19.17;;;;;;;;;;5055585;28;20409;-72
2022/04/25 01:58:25;;;;;;;29.90;20.83;;;;;;;;;;5055571;28;20962;-72
2022/04/25 02:00:51;;;;;;;28.50;20.13;;;;;;;;;;5055479;28;20418;-74
2022/04/25 02:03:17;;;;;;;30.77;20.33;;;;;;;;;;5055508;28;20451;-72
2022/04/25 02:05:43;;;;;;;28.37;20.13;;;;;;;;;;5054009;28;20469;-69
2022/04/25 02:08:09;;;;;;;29.00;20.27;;;;;;;;;;5055236;28;20476;-72
2022/04/25 02:10:35;;;;;;;26.53;19.57;;;;;;;;;;5055370;28;20413;-72
2022/04/25 02:13:01;;;;;;;29.03;20.07;;;;;;;;;;5055215;28;20461;-72
2022/04/25 02:15:28;;;;;;;28.40;19.60;;;;;;;;;;5055219;28;20499;-66
2022/04/25 02:17:54;;;;;;;25.57;19.30;;;;;;;;;;5055250;28;20414;-72
2022/04/25 02:20:20;;;;;;;29.17;19.03;;;;;;;;;;5054576;28;20425;-72
2022/04/25 02:22:47;;;;;;;28.67;20.00;;;;;;;;;;5055177;28;20409;-72
2022/04/25 02:25:13;;;;;;;33.17;20.90;;;;;;;;;;5054835;28;20469;-71
2022/04/25 02:27:39;;;;;;;29.23;20.70;;;;;;;;;;5053682;28;20417;-71
2022/04/25 02:30:05;;;;;;;33.07;20.10;;;;;;;;;;5054871;28;20416;-68
2022/04/25 02:32:32;;;;;;;28.67;20.33;;;;;;;;;;5054921;28;20420;-72
2022/04/25 02:34:59;;;;;;;27.87;19.80;;;;;;;;;;5054914;28;20406;-71
2022/04/25 02:37:25;;;;;;;27.60;18.80;;;;;;;;;;5053668;28;20447;-73
2022/04/25 02:39:51;;;;;;;26.37;18.43;;;;;;;;;;5054723;28;20393;-70
2022/04/25 02:42:17;;;;;;;28.63;20.30;;;;;;;;;;5054649;28;20418;-72
2022/04/25 02:44:43;;;;;;;26.20;18.90;;;;;;;;;;5054065;28;20401;-72
2022/04/25 02:47:09;;;;;;;25.13;17.53;;;;;;;;;;5054659;28;20410;-73
2022/04/25 02:49:35;;;;;;;26.40;18.77;;;;;;;;;;5054696;28;20396;-72
2022/04/25 02:52:02;;;;;;;25.43;18.73;;;;;;;;;;5054572;28;20405;-72
2022/04/25 02:54:28;;;;;;;28.23;19.63;;;;;;;;;;5054531;28;20397;-66
2022/04/25 02:56:55;;;;;;;27.67;19.50;;;;;;;;;;5054527;28;20760;-72
2022/04/25 02:59:21;;;;;;;28.10;19.53;;;;;;;;;;5054345;28;20445;-73
2022/04/25 03:01:47;;;;;;;29.63;19.90;;;;;;;;;;5054350;28;20413;-71
2022/04/25 03:04:13;;;;;;;26.73;18.93;;;;;;;;;;5054257;28;20437;-70
2022/04/25 03:06:39;;;;;;;26.30;17.97;;;;;;;;;;5053965;28;21018;-73
2022/04/25 03:09:05;;;;;;;27.67;18.53;;;;;;;;;;5054445;28;20439;-72
2022/04/25 03:11:34;;;;;;;28.20;18.97;;;;;;;;;;5054097;28;20410;-73
2022/04/25 03:14:00;;;;;;;30.37;18.47;;;;;;;;;;5054089;28;20414;-69
2022/04/25 03:16:29;;;;;;;29.97;18.57;;;;;;;;;;5054150;28;20413;-72
2022/04/25 03:18:58;;;;;;;27.23;18.03;;;;;;;;;;5054050;28;20410;-74
2022/04/25 03:21:24;;;;;;;22.70;17.30;;;;;;;;;;5053961;28;20900;-74
2022/04/25 03:23:51;;;;;;;26.30;18.53;;;;;;;;;;5053854;28;20433;-73
2022/04/25 03:26:17;;;;;;;27.10;18.23;;;;;;;;;;5053800;28;20473;-71
2022/04/25 03:28:43;;;;;;;26.47;19.00;;;;;;;;;;5053870;28;20398;-72
2022/04/25 03:31:09;;;;;;;27.80;18.40;;;;;;;;;;5052948;28;20410;-71
2022/04/25 03:33:36;;;;;;;26.87;17.70;;;;;;;;;;5053742;28;20416;-72
2022/04/25 03:36:03;;;;;;;27.73;18.57;;;;;;;;;;5053660;28;20540;-72
2022/04/25 03:38:29;;;;;;;26.43;18.60;;;;;;;;;;5053654;28;20548;-70
2022/04/25 03:40:55;;;;;;;25.63;18.17;;;;;;;;;;5053692;28;20928;-72
2022/04/25 03:43:23;;;;;;;23.80;18.03;;;;;;;;;;5053397;28;20421;-72
2022/04/25 03:45:49;;;;;;;29.90;18.20;;;;;;;;;;5053491;28;20464;-72
2022/04/25 03:48:15;;;;;;;25.50;18.73;;;;;;;;;;5053490;28;20409;-71
2022/04/25 03:50:41;;;;;;;27.60;19.13;;;;;;;;;;5052262;28;20422;-72
2022/04/25 03:53:07;;;;;;;27.80;18.07;;;;;;;;;;5052231;28;20745;-72
2022/04/25 03:58:18;;;;;;;28.00;19.27;;;;;;;;;;5053432;28;20450;-72
2022/04/25 04:00:44;;;;;;;25.63;17.90;;;;;;;;;;5053373;28;20488;-72
2022/04/25 04:03:12;;;;;;;25.73;18.20;;;;;;;;;;5052052;28;20552;-72
2022/04/25 04:05:40;;;;;;;25.90;18.13;;;;;;;;;;5053132;28;20823;-72
2022/04/25 04:08:06;;;;;;;29.13;18.43;;;;;;;;;;5053053;28;21035;-72
2022/04/25 04:10:32;;;;;;;27.60;18.80;;;;;;;;;;5053032;28;20424;-75
2022/04/25 04:12:59;;;;;;;26.60;18.23;;;;;;;;;;5053115;28;20428;-68
2022/04/25 04:15:25;;;;;;;28.30;19.27;;;;;;;;;;5053195;28;20514;-70
2022/04/25 04:17:51;;;;;;;29.33;19.20;;;;;;;;;;5053162;28;20920;-71
2022/04/25 04:20:17;;;;;;;25.43;16.97;;;;;;;;;;5053060;28;20409;-70
2022/04/25 04:22:43;;;;;;;27.83;19.00;;;;;;;;;;5053016;28;20409;-70
2022/04/25 04:25:12;;;;;;;26.43;18.73;;;;;;;;;;5052936;28;20526;-71
2022/04/25 04:27:38;;;;;;;26.53;17.47;;;;;;;;;;5051847;28;20448;-70
2022/04/25 04:30:06;;;;;;;25.20;18.30;;;;;;;;;;5052873;28;20405;-73
2022/04/25 04:32:32;;;;;;;26.83;19.83;;;;;;;;;;5053446;28;20480;-74
2022/04/25 04:34:58;;;;;;;26.80;18.87;;;;;;;;;;5053155;28;20416;-73
2022/04/25 04:37:25;;;;;;;28.03;18.07;;;;;;;;;;5053704;28;20754;-73
2022/04/25 04:40:28;;;;;;;30.40;18.90;;;;;;;;;;5053103;28;20443;-74
2022/04/25 04:42:38;;;;;;;28.47;19.00;;;;;;;;;;5053351;28;20433;-74
2022/04/25 04:45:04;;;;;;;31.23;19.90;;;;;;;;;;5056775;28;20498;-72
2022/04/25 04:47:34;;;;;;;30.30;20.07;;;;;;;;;;5057017;28;20441;-70
2022/04/25 04:50:00;;;;;;;29.40;20.10;;;;;;;;;;5056759;28;20398;-72
2022/04/25 04:52:26;;;;;;;30.27;19.13;;;;;;;;;;5055518;28;20425;-73
2022/04/25 04:54:52;;;;;;;27.17;19.03;;;;;;;;;;5056739;28;20412;-70
2022/04/25 04:57:18;;;;;;;27.33;19.17;;;;;;;;;;5056588;28;20417;-70
2022/04/25 04:59:44;;;;;;;26.83;18.87;;;;;;;;;;5056843;28;20417;-72
2022/04/25 05:02:10;;;;;;;27.57;18.87;;;;;;;;;;5056969;28;20409;-70
2022/04/25 05:04:38;;;;;;;24.97;17.73;;;;;;;;;;5056659;28;20884;-70
2022/04/25 05:07:05;;;;;;;25.57;18.50;;;;;;;;;;5056614;28;20472;-70
2022/04/25 05:09:31;;;;;;;24.37;17.27;;;;;;;;;;5056547;28;20824;-72
2022/04/25 05:11:57;;;;;;;24.87;17.70;;;;;;;;;;5056457;28;20924;-73
2022/04/25 05:14:23;;;;;;;22.90;17.17;;;;;;;;;;5056384;28;20402;-70
2022/04/25 05:16:49;;;;;;;26.47;19.00;;;;;;;;;;5056455;28;20504;-71
2022/04/25 05:19:15;;;;;;;26.30;19.00;;;;;;;;;;5055088;28;20411;-71
2022/04/25 05:21:41;;;;;;;23.10;16.83;;;;;;;;;;5056211;28;20464;-70
2022/04/25 05:24:07;;;;;;;33.63;19.73;;;;;;;;;;5054860;28;20418;-71
2022/04/25 05:26:33;;;;;;;28.67;18.83;;;;;;;;;;5054963;28;20548;-71
2022/04/25 05:28:59;;;;;;;26.57;19.10;;;;;;;;;;5056214;28;20972;-77
2022/04/25 05:31:25;;;;;;;27.80;18.90;;;;;;;;;;5054621;28;20436;-76
2022/04/25 05:33:52;;;;;;;26.27;19.37;;;;;;;;;;5055868;28;20418;-71
2022/04/25 05:36:18;;;;;;;25.70;18.73;;;;;;;;;;5055874;28;20412;-78
2022/04/25 05:38:44;;;;;;;26.67;17.93;;;;;;;;;;5054624;28;20413;-75
2022/04/25 05:41:10;;;;;;;28.43;18.83;;;;;;;;;;5055789;28;20414;-76
2022/04/25 05:43:37;;;;;;;28.27;18.70;;;;;;;;;;5055541;28;20432;-74
2022/04/25 05:46:04;;;;;;;24.90;17.87;;;;;;;;;;5055693;28;20472;-74
2022/04/25 05:53:59;;;;;;;24.30;16.63;;;;;;;;;;5054976;28;20462;-75
2022/04/25 05:56:26;;;;;;;24.90;17.47;;;;;;;;;;5055214;28;20413;-68
2022/04/25 05:58:52;;;;;;;24.47;18.13;;;;;;;;;;5054272;28;20405;-72
2022/04/25 06:01:18;;;;;;;23.87;16.60;;;;;;;;;;5055492;28;20547;-74
2022/04/25 06:03:44;;;;;;;23.10;16.60;;;;;;;;;;5055333;28;20547;-72
2022/04/25 06:06:10;;;;;;;23.93;17.47;;;;;;;;;;5054996;28;20909;-74
2022/04/25 06:08:36;;;;;;;25.23;18.47;;;;;;;;;;5055202;28;20410;-75
2022/04/25 06:11:02;;;;;;;23.10;17.30;;;;;;;;;;5055261;28;20485;-75
2022/04/25 06:13:29;;;;;;;23.73;18.07;;;;;;;;;;5055073;28;20421;-71
2022/04/25 06:15:55;;;;;;;24.40;17.10;;;;;;;;;;5055182;28;20417;-75
2022/04/25 06:18:22;;;;;;;24.60;16.90;;;;;;;;;;5055137;28;20409;-75
2022/04/25 06:20:49;;;;;;;19.20;15.73;;;;;;;;;;5055115;28;20493;-74
2022/04/25 06:23:15;;;;;;;21.73;17.50;;;;;;;;;;5055007;28;20398;-75
2022/04/25 06:25:41;;;;;;;23.57;16.43;;;;;;;;;;5054947;28;20496;-76
2022/04/25 06:28:07;;;;;;;21.00;16.60;;;;;;;;;;5055021;28;20417;-75
2022/04/25 06:30:33;;;;;;;24.73;17.50;;;;;;;;;;5054839;28;20398;-76
2022/04/25 06:33:02;;;;;;;21.00;16.27;;;;;;;;;;5053492;28;20479;-76
2022/04/25 06:35:29;;;;;;;21.57;16.47;;;;;;;;;;5054796;28;20397;-75
2022/04/25 06:37:55;;;;;;;19.53;14.93;;;;;;;;;;5054778;28;20405;-76
2022/04/25 06:40:21;;;;;;;21.23;16.40;;;;;;;;;;5053429;28;20460;-75
2022/04/25 06:42:48;;;;;;;21.30;15.87;;;;;;;;;;5054645;28;20431;-76
2022/04/25 06:45:14;;;;;;;21.30;16.23;;;;;;;;;;5054564;28;20468;-75
2022/04/25 06:47:40;;;;;;;23.17;16.23;;;;;;;;;;5053352;28;20405;-75
2022/04/25 06:50:07;;;;;;;21.93;16.30;;;;;;;;;;5054480;28;20441;-76
2022/04/25 06:52:33;;;;;;;19.80;15.53;;;;;;;;;;5054439;28;20796;-67
2022/04/25 06:54:59;;;;;;;23.90;15.57;;;;;;;;;;5052988;28;20904;-73
2022/04/25 06:57:25;;;;;;;19.10;15.33;;;;;;;;;;5054322;28;20405;-75
2022/04/25 06:59:51;;;;;;;22.23;15.77;;;;;;;;;;5053013;28;20417;-75
2022/04/25 07:02:17;;;;;;;20.17;15.10;;;;;;;;;;5054307;28;20440;-76
2022/04/25 07:04:43;;;;;;;22.50;15.93;;;;;;;;;;5053804;28;20418;-76
2022/04/25 07:07:09;;;;;;;20.57;15.27;;;;;;;;;;5053580;28;20468;-73
2022/04/25 07:09:35;;;;;;;21.20;14.37;;;;;;;;;;5054047;28;20439;-71
2022/04/25 07:12:02;;;;;;;18.73;13.90;;;;;;;;;;5053802;28;20466;-75
2022/04/25 07:14:28;;;;;;;20.20;14.73;;;;;;;;;;5053992;28;20405;-70
2022/04/25 07:16:57;;;;;;;19.57;14.93;;;;;;;;;;5053990;28;20406;-72
2022/04/25 07:19:23;;;;;;;20.27;14.80;;;;;;;;;;5053932;28;20496;-75
2022/04/25 07:30:03;;;;;;;18.67;14.30;;;;;;;;;;5053635;28;20432;-76
2022/04/25 07:32:29;;;;;;;17.57;14.33;;;;;;;;;;5053740;28;20749;-76
2022/04/25 07:34:55;;;;;;;17.87;13.80;;;;;;;;;;5053855;28;20402;-73
2022/04/25 07:37:22;;;;;;;19.90;15.40;;;;;;;;;;5053841;28;20813;-73
2022/04/25 07:39:48;;;;;;;17.67;14.53;;;;;;;;;;5053572;28;20904;-75
2022/04/25 07:42:21;;;;;;;17.40;14.00;;;;;;;;;;5053376;28;20453;-75
2022/04/25 07:44:47;;;;;;;16.33;13.80;;;;;;;;;;5053267;28;20406;-76
2022/04/25 07:47:13;;;;;;;19.17;14.30;;;;;;;;;;5053482;28;20521;-75
2022/04/25 07:49:40;;;;;;;18.40;14.50;;;;;;;;;;5053482;28;20456;-76
2022/04/25 07:52:06;;;;;;;18.33;14.07;;;;;;;;;;5053466;28;20409;-76
2022/04/25 07:54:32;;;;;;;20.70;14.50;;;;;;;;;;5053451;28;20410;-75
2022/04/25 07:56:58;;;;;;;17.87;13.90;;;;;;;;;;5053232;28;20417;-74
2022/04/25 07:59:26;;;;;;;23.43;15.37;;;;;;;;;;5053343;28;20429;-76
2022/04/25 08:01:52;;;;;;;21.37;16.47;;;;;;;;;;5053294;28;20732;-67
2022/04/25 08:04:18;;;;;;;17.03;13.60;;;;;;;;;;5053100;28;20405;-74
2022/04/25 08:06:43;;;;;;;17.83;14.50;;;;;;;;;;5053017;28;20485;-77
2022/04/25 08:09:10;;;;;;;18.17;14.30;;;;;;;;;;5053187;28;20405;-75
2022/04/25 08:11:36;;;;;;;16.33;13.70;;;;;;;;;;5052999;28;20501;-76
2022/04/25 08:19:39;;;;;;;15.47;13.07;;;;;;;;;;5053007;28;20408;-74
2022/04/25 08:22:09;;;;;;;20.97;17.20;;;;;;;;;;5052808;28;20496;-77
2022/04/25 08:24:36;;;;;;;15.17;13.50;;;;;;;;;;5053010;28;20500;-76
2022/04/25 08:27:03;;;;;;;18.87;15.50;;;;;;;;;;5052828;28;20635;-75
2022/04/25 08:29:29;;;;;;;16.13;14.43;;;;;;;;;;5052938;28;20504;-75
2022/04/25 08:31:55;;;;;;;15.93;13.47;;;;;;;;;;5052875;28;20449;-75
2022/04/25 08:34:23;;;;;;;20.20;15.20;;;;;;;;;;5052855;28;20405;-76
2022/04/25 08:36:49;;;;;;;18.70;13.60;;;;;;;;;;5052890;28;20475;-70
2022/04/25 08:39:15;;;;;;;16.43;13.20;;;;;;;;;;5052852;28;20409;-68
2022/04/25 08:41:46;;;;;;;18.30;14.40;;;;;;;;;;5052863;28;20472;-77
2022/04/25 08:44:14;;;;;;;18.00;14.20;;;;;;;;;;5052693;28;20752;-77
2022/04/25 08:46:41;;;;;;;15.67;12.20;;;;;;;;;;5052808;28;20468;-76
2022/04/25 08:49:09;;;;;;;17.57;13.87;;;;;;;;;;5052697;28;20409;-77
2022/04/25 08:51:38;;;;;;;16.17;12.83;;;;;;;;;;5051499;28;20833;-77
2022/04/25 08:54:08;;;;;;;15.67;12.73;;;;;;;;;;5052875;28;20402;-73
2022/04/25 08:56:35;;;;;;;16.63;13.47;;;;;;;;;;5052562;28;20452;-76
2022/04/25 08:59:01;;;;;;;16.40;12.90;;;;;;;;;;5052493;28;20789;-72
2022/04/25 09:01:27;;;;;;;15.27;13.60;;;;;;;;;;5052617;28;20401;-68
2022/04/25 09:03:53;;;;;;;18.33;13.60;;;;;;;;;;5052476;28;20401;-75
2022/04/25 09:06:19;;;;;;;17.63;14.10;;;;;;;;;;5052141;28;20485;-77
2022/04/25 09:08:45;;;;;;;17.30;13.50;;;;;;;;;;5052572;28;20413;-75
2022/04/25 09:13:56;;;;;;;17.30;13.77;;;;;;;;;;5053029;28;20938;-75
2022/04/25 09:16:22;;;;;;;21.30;15.23;;;;;;;;;;5052433;28;20491;-69
2022/04/25 09:18:48;;;;;;;19.67;14.87;;;;;;;;;;5052480;28;20409;-76
2022/04/25 09:21:15;;;;;;;19.80;15.03;;;;;;;;;;5052479;28;20884;-66
2022/04/25 09:23:41;;;;;;;20.90;15.03;;;;;;;;;;5052308;28;20908;-76
2022/04/25 09:26:11;;;;;;;20.90;15.10;;;;;;;;;;5052439;28;20554;-77
2022/04/25 09:28:47;;;;;;;19.00;15.03;;;;;;;;;;5052413;28;20405;-77
2022/04/25 09:31:14;;;;;;;19.50;13.80;;;;;;;;;;5055552;28;20410;-75
2022/04/25 09:33:40;;;;;;;17.80;14.77;;;;;;;;;;5055906;28;20409;-76
2022/04/25 09:36:06;;;;;;;21.40;15.50;;;;;;;;;;5055824;28;20410;-74
2022/04/25 09:38:35;;;;;;;19.70;14.10;;;;;;;;;;5055842;28;20402;-70
2022/04/25 09:41:02;;;;;;;17.73;13.70;;;;;;;;;;5055743;28;20409;-66
2022/04/25 09:43:30;;;;;;;17.20;13.73;;;;;;;;;;5054446;28;20548;-77
2022/04/25 09:46:09;;;;;;;20.60;14.83;;;;;;;;;;5055796;28;20477;-75
2022/04/25 09:48:36;;;;;;;20.27;15.03;;;;;;;;;;5055758;28;20971;-75
2022/04/25 09:51:04;;;;;;;16.47;13.67;;;;;;;;;;5055645;28;20768;-76
2022/04/25 09:53:42;;;;;;;18.03;14.80;;;;;;;;;;5055685;28;20505;-66
2022/04/25 09:56:16;;;;;;;16.73;13.00;;;;;;;;;;5054299;28;20421;-76
2022/04/25 09:58:43;;;;;;;16.43;13.60;;;;;;;;;;5055466;28;20794;-77
2022/04/25 10:01:13;;;;;;;15.13;12.43;;;;;;;;;;5055382;28;20433;-77
2022/04/25 10:03:40;;;;;;;17.20;13.50;;;;;;;;;;5055286;28;20468;-76
2022/04/25 10:06:06;;;;;;;18.80;13.77;;;;;;;;;;5055116;28;20477;-73
2022/04/25 10:08:34;;;;;;;16.27;13.20;;;;;;;;;;5054974;28;20406;-68
2022/04/25 10:11:01;;;;;;;14.87;12.80;;;;;;;;;;5055178;28;20421;-76
2022/04/25 10:13:28;;;;;;;15.20;12.97;;;;;;;;;;5055273;28;20425;-65
2022/04/25 10:15:56;;;;;;;18.00;14.30;;;;;;;;;;5055102;28;20460;-78
2022/04/25 10:18:22;;;;;;;16.40;12.90;;;;;;;;;;5054882;28;20952;-74
2022/04/25 10:20:48;;;;;;;16.27;12.63;;;;;;;;;;5054996;28;20405;-75
2022/04/25 10:23:16;;;;;;;18.83;14.33;;;;;;;;;;5055014;28;20492;-71
2022/04/25 10:25:47;;;;;;;16.93;13.50;;;;;;;;;;5054791;28;20453;-77
2022/04/25 10:28:22;;;;;;;13.47;11.97;;;;;;;;;;5054936;28;20436;-77
2022/04/25 10:30:50;;;;;;;16.17;13.03;;;;;;;;;;5054807;28;20404;-74
2022/04/25 10:33:22;;;;;;;16.90;12.60;;;;;;;;;;5054890;28;20409;-77
2022/04/25 10:35:49;;;;;;;14.93;13.10;;;;;;;;;;5054850;28;20402;-69
2022/04/25 10:44:19;;;;;;;18.40;14.20;;;;;;;;;;5054924;28;20747;-75
2022/04/25 10:47:07;;;;;;;15.87;13.00;;;;;;;;;;5054613;28;20501;-77
2022/04/25 10:49:36;;;;;;;18.77;14.80;;;;;;;;;;5054478;28;20876;-69
2022/04/25 10:52:02;;;;;;;16.17;13.93;;;;;;;;;;5054570;28;20481;-76
2022/04/25 10:54:46;;;;;;;16.60;13.50;;;;;;;;;;5054489;28;20936;-77
2022/04/25 10:57:12;;;;;;;17.80;14.20;;;;;;;;;;5054349;28;20405;-78
2022/04/25 10:59:39;;;;;;;18.40;13.97;;;;;;;;;;5054189;28;20776;-77
2022/04/25 11:02:24;;;;;;;16.73;14.80;;;;;;;;;;5054231;28;20436;-65
2022/04/25 11:05:08;;;;;;;17.60;13.90;;;;;;;;;;5054198;28;20441;-65
2022/04/25 11:07:35;;;;;;;19.97;14.60;;;;;;;;;;5053963;28;20476;-72
2022/04/25 11:10:01;;;;;;;17.70;13.20;;;;;;;;;;5054139;28;20745;-76
2022/04/25 11:12:47;;;;;;;18.40;13.90;;;;;;;;;;5053934;28;20478;-69
2022/04/25 11:15:13;;;;;;;20.80;14.70;;;;;;;;;;5053967;28;20409;-77
2022/04/25 11:17:58;;;;;;;17.83;14.33;;;;;;;;;;5053930;28;20801;-77
2022/04/25 11:20:50;;;;;;;14.80;12.40;;;;;;;;;;5053867;28;20519;-65
2022/04/25 11:23:28;;;;;;;15.83;13.43;;;;;;;;;;5053760;28;20912;-66
2022/04/25 11:25:59;;;;;;;14.80;13.10;;;;;;;;;;5053677;28;20464;-77
2022/04/25 11:28:26;;;;;;;15.63;13.90;;;;;;;;;;5053624;28;20429;-71
2022/04/25 11:31:11;;;;;;;15.23;12.40;;;;;;;;;;5053659;28;20410;-65
2022/04/25 11:33:44;;;;;;;16.10;13.23;;;;;;;;;;5053656;28;20396;-72
2022/04/25 11:36:11;;;;;;;15.93;12.77;;;;;;;;;;5053624;28;20433;-78
2022/04/25 11:41:26;;;;;;;18.30;14.10;;;;;;;;;;5053350;28;20900;-76
2022/04/25 11:43:52;;;;;;;17.87;13.67;;;;;;;;;;5053326;28;20418;-75
2022/04/25 11:46:18;;;;;;;16.70;13.50;;;;;;;;;;5053391;28;20481;-67
2022/04/25 11:48:48;;;;;;;14.13;12.07;;;;;;;;;;5053237;28;20493;-70
2022/04/25 11:51:22;;;;;;;19.53;14.70;;;;;;;;;;5053381;28;20500;-64
2022/04/25 11:53:48;;;;;;;16.60;14.40;;;;;;;;;;5052592;28;20463;-66
2022/04/25 11:56:15;;;;;;;17.63;14.10;;;;;;;;;;5053241;28;20413;-65
2022/04/25 11:58:41;;;;;;;18.67;13.90;;;;;;;;;;5053218;28;20912;-77
2022/04/25 12:01:09;;;;;;;16.63;12.37;;;;;;;;;;5053268;28;20406;-65
2022/04/25 12:03:36;;;;;;;15.77;12.30;;;;;;;;;;5053180;28;20759;-78
2022/04/25 12:06:13;;;;;;;19.87;14.70;;;;;;;;;;5052999;28;20465;-78
2022/04/25 12:17:15;;;;;;;22.90;15.70;;;;;;;;;;5058094;28;20416;-76
2022/04/25 12:19:56;;;;;;;25.63;17.10;;;;;;;;;;5052984;28;20390;-77
2022/04/25 12:22:23;;;;;;;18.20;15.43;;;;;;;;;;5053228;28;20402;-76
2022/04/25 12:24:50;;;;;;;19.90;15.30;;;;;;;;;;5052967;28;20441;-72
2022/04/25 12:27:16;;;;;;;22.10;15.97;;;;;;;;;;5052835;28;20465;-73
2022/04/25 12:30:03;;;;;;;18.90;15.73;;;;;;;;;;5052828;28;20461;-76
2022/04/25 12:32:29;;;;;;;18.93;14.83;;;;;;;;;;5053080;28;20440;-76
2022/04/25 12:34:55;;;;;;;21.07;16.13;;;;;;;;;;5052881;28;20418;-66
2022/04/25 12:37:21;;;;;;;18.37;14.40;;;;;;;;;;5051644;28;20494;-65
2022/04/25 12:40:05;;;;;;;18.87;15.27;;;;;;;;;;5052718;28;20397;-67
2022/04/25 12:42:44;;;;;;;19.60;14.70;;;;;;;;;;5052558;28;20516;-77
2022/04/25 12:45:10;;;;;;;17.30;13.90;;;;;;;;;;5052731;28;20451;-68
2022/04/25 12:47:36;;;;;;;18.33;13.77;;;;;;;;;;5052674;28;20799;-69
2022/04/25 12:50:03;;;;;;;19.07;14.77;;;;;;;;;;5052651;28;20954;-75
2022/04/25 12:52:45;;;;;;;23.87;15.13;;;;;;;;;;5052691;28;20414;-75
2022/04/25 12:55:11;;;;;;;16.90;13.43;;;;;;;;;;5052841;28;20436;-77
2022/04/25 12:57:37;;;;;;;16.70;13.60;;;;;;;;;;5052711;28;20426;-77
2022/04/25 13:00:04;;;;;;;14.23;11.87;;;;;;;;;;5052694;28;20790;-78
2022/04/25 13:02:35;;;;;;;15.93;12.93;;;;;;;;;;5052429;28;20422;-70
2022/04/25 13:05:06;;;;;;;14.60;12.80;;;;;;;;;;5055423;28;20869;-65
2022/04/25 13:07:32;;;;;;;13.47;12.03;;;;;;;;;;5056103;28;20875;-70
2022/04/25 13:09:59;;;;;;;17.70;14.10;;;;;;;;;;5056381;28;20437;-77
2022/04/25 13:12:32;;;;;;;16.97;14.47;;;;;;;;;;5056228;28;20417;-67
2022/04/25 13:14:58;;;;;;;17.20;13.87;;;;;;;;;;5056403;28;20470;-75
2022/04/25 13:17:24;;;;;;;13.83;12.27;;;;;;;;;;5056231;28;20496;-75
2022/04/25 13:19:49;;;;;;;13.20;10.90;;;;;;;;;;5056142;28;20421;-70
2022/04/25 13:22:15;;;;;;;11.83;10.63;;;;;;;;;;5056108;28;20425;-76
2022/04/25 13:24:43;;;;;;;13.13;10.60;;;;;;;;;;5056005;28;20417;-76
2022/04/25 13:27:09;;;;;;;13.27;9.80;;;;;;;;;;5055982;28;20847;-76
2022/04/25 13:29:35;;;;;;;12.27;9.60;;;;;;;;;;5055963;28;20409;-68
2022/04/25 13:32:02;;;;;;;12.03;9.73;;;;;;;;;;5056087;28;20440;-78
2022/04/25 13:34:28;;;;;;;10.40;9.27;;;;;;;;;;5055987;28;20402;-77
2022/04/25 13:36:58;;;;;;;10.13;9.13;;;;;;;;;;5055983;28;20414;-76
2022/04/25 13:39:24;;;;;;;10.80;9.57;;;;;;;;;;5055822;28;20401;-76
2022/04/25 13:41:50;;;;;;;9.17;8.17;;;;;;;;;;5055846;28;20437;-77
2022/04/25 13:44:16;;;;;;;10.53;9.03;;;;;;;;;;5055735;28;20885;-77
2022/04/25 13:46:42;;;;;;;10.90;9.60;;;;;;;;;;5055616;28;20465;-67
2022/04/25 13:49:08;;;;;;;10.00;7.80;;;;;;;;;;5055526;28;20889;-78
2022/04/25 13:51:34;;;;;;;8.97;7.90;;;;;;;;;;5055559;28;20424;-78
2022/04/25 13:54:00;;;;;;;9.27;8.03;;;;;;;;;;5055551;28;20521;-80
2022/04/25 13:56:26;;;;;;;12.83;8.60;;;;;;;;;;5054161;28;20512;-76
2022/04/25 13:58:54;;;;;;;10.83;7.47;;;;;;;;;;5055370;28;20405;-79
2022/04/25 14:01:20;;;;;;;8.80;7.93;;;;;;;;;;5055296;28;20425;-78
2022/04/25 14:03:47;;;;;;;8.30;7.50;;;;;;;;;;5053992;28;20417;-78
2022/04/25 14:06:13;;;;;;;6.47;5.87;;;;;;;;;;5054994;28;20508;-75
2022/04/25 14:08:39;;;;;;;5.90;5.30;;;;;;;;;;5055404;28;20394;-70
2022/04/25 14:11:05;;;;;;;5.97;5.47;;;;;;;;;;5055132;28;20448;-68
2022/04/25 14:13:31;;;;;;;6.93;5.40;;;;;;;;;;5055222;28;20410;-67
2022/04/25 14:15:57;;;;;;;6.97;5.93;;;;;;;;;;5054226;28;20417;-67
2022/04/25 14:18:24;;;;;;;5.67;5.17;;;;;;;;;;5055227;28;20742;-74
2022/04/25 14:20:54;;;;;;;5.90;5.30;;;;;;;;;;5055153;28;20888;-78
2022/04/25 14:23:20;;;;;;;5.57;5.07;;;;;;;;;;5054954;28;20428;-79
2022/04/25 14:25:46;;;;;;;9.20;8.30;;;;;;;;;;5054809;28;20497;-79
2022/04/25 14:28:13;;;;;;;10.60;8.50;;;;;;;;;;5055061;28;20544;-69
2022/04/25 14:30:40;;;;;;;7.90;6.53;;;;;;;;;;5054924;28;20410;-76
2022/04/25 14:33:06;;;;;;;7.73;5.87;;;;;;;;;;5054929;28;20428;-76
2022/04/25 14:35:32;;;;;;;6.63;5.23;;;;;;;;;;5054924;28;20402;-78
2022/04/25 14:37:58;;;;;;;6.13;5.50;;;;;;;;;;5054608;28;20409;-72
2022/04/25 14:40:24;;;;;;;7.40;6.10;;;;;;;;;;5054596;28;20421;-77
2022/04/25 14:42:50;;;;;;;7.20;6.50;;;;;;;;;;5054460;28;20425;-68
2022/04/25 14:45:17;;;;;;;8.03;5.70;;;;;;;;;;5054377;28;20436;-77
2022/04/25 14:47:46;;;;;;;10.83;6.37;;;;;;;;;;5054511;28;20425;-73
2022/04/25 14:55:41;;;;;;;8.93;5.43;;;;;;;;;;5054413;28;20404;-79
2022/04/25 14:58:07;;;;;;;9.03;5.47;;;;;;;;;;5054197;28;20405;-77
2022/04/25 15:00:34;;;;;;;5.23;4.63;;;;;;;;;;5054340;28;20431;-79
2022/04/25 15:03:00;;;;;;;6.03;4.90;;;;;;;;;;5054321;28;20410;-69
2022/04/25 15:05:26;;;;;;;7.03;5.23;;;;;;;;;;5053993;28;20503;-75
2022/04/25 15:07:52;;;;;;;5.67;4.73;;;;;;;;;;5053873;28;20457;-71
2022/04/25 15:10:19;;;;;;;5.47;5.00;;;;;;;;;;5053828;28;20405;-76
2022/04/25 15:12:45;;;;;;;5.93;5.17;;;;;;;;;;5053992;28;20799;-67